Time;durP1;ratioP1;P1;durP2;ratioP2;P2;SDS_P1;SDS_P2;PMS_P1;PMS_P2;Temp;Humidity;BMP_temperature;BMP_pressure;BME280_temperature;BME280_humidity;BME280_pressure;Samples;Min_cycle;Max_cycle;Signal;HPM_P1;HPM_P2
2021/08/09 00:01:43;;;;;;;;;;;14.70;99.90;;;;;;5112032;28;20170;-75
2021/08/09 00:04:09;;;;;;;0.85;0.85;;;14.70;99.90;;;;;;5112078;28;20010;-76
2021/08/09 00:06:34;;;;;;;2.95;1.42;;;14.60;99.90;;;;;;5109306;28;20043;-75
2021/08/09 00:09:02;;;;;;;;;;;14.60;99.90;;;;;;5114340;28;20515;-76
2021/08/09 00:11:28;;;;;;;1.77;1.55;;;14.50;99.90;;;;;;5113974;28;19915;-75
2021/08/09 00:13:55;;;;;;;1.55;0.75;;;14.50;99.90;;;;;;5084231;28;20036;-77
2021/08/09 00:16:21;;;;;;;12.27;1.48;;;14.50;99.90;;;;;;5107760;28;20094;-76
2021/08/09 00:18:48;;;;;;;1.77;1.63;;;14.40;99.90;;;;;;5102390;28;20043;-75
2021/08/09 00:21:16;;;;;;;2.83;1.77;;;14.40;99.90;;;;;;5114523;28;20377;-73
2021/08/09 00:23:43;;;;;;;1.50;1.40;;;14.40;99.90;;;;;;5112598;28;20042;-77
2021/08/09 00:26:09;;;;;;;1.52;1.30;;;14.40;99.90;;;;;;5115772;28;20059;-76
2021/08/09 00:28:35;;;;;;;;;;;14.40;99.90;;;;;;5093992;28;20126;-75
2021/08/09 00:31:00;;;;;;;1.17;1.08;;;14.40;99.90;;;;;;5112274;28;19949;-75
2021/08/09 00:33:26;;;;;;;;;;;14.30;99.90;;;;;;5085140;28;20179;-75
2021/08/09 00:35:52;;;;;;;4.75;1.92;;;14.30;99.90;;;;;;5107209;28;20381;-76
2021/08/09 00:38:18;;;;;;;;;;;14.30;99.90;;;;;;5094728;28;20035;-75
2021/08/09 00:40:43;;;;;;;5.18;2.53;;;14.30;99.90;;;;;;5112667;28;20048;-76
2021/08/09 00:43:09;;;;;;;1.85;1.55;;;14.30;99.90;;;;;;5106812;28;20090;-77
2021/08/09 00:45:35;;;;;;;1.45;1.00;;;14.30;99.90;;;;;;5085052;28;20039;-76
2021/08/09 00:48:03;;;;;;;3.53;1.73;;;14.30;99.90;;;;;;5090966;28;20044;-77
2021/08/09 00:50:29;;;;;;;1.58;1.48;;;14.30;99.90;;;;;;5102986;28;20046;-75
2021/08/09 00:52:55;;;;;;;;;;;14.30;99.90;;;;;;5111213;28;20134;-76
2021/08/09 00:55:21;;;;;;;4.68;2.05;;;14.30;99.90;;;;;;5104493;28;19916;-76
2021/08/09 00:57:47;;;;;;;1.33;1.15;;;14.30;99.90;;;;;;5096236;28;20047;-76
2021/08/09 01:00:13;;;;;;;1.80;1.25;;;14.30;99.90;;;;;;5112387;28;20036;-76
2021/08/09 01:02:38;;;;;;;1.15;1.05;;;14.20;99.90;;;;;;5091674;28;20598;-76
2021/08/09 01:05:06;;;;;;;5.90;2.17;;;14.20;99.90;;;;;;5094849;28;20039;-76
2021/08/09 01:08:00;;;;;;;1.08;1.00;;;14.20;99.90;;;;;;5109488;28;20454;-76
2021/08/09 01:10:31;;;;;;;1.40;1.08;;;14.20;99.90;;;;;;5061227;28;20109;-76
2021/08/09 01:13:27;;;;;;;0.80;0.80;;;14.10;99.90;;;;;;5100205;28;20119;-76
2021/08/09 01:16:03;;;;;;;0.80;0.80;;;14.20;99.90;;;;;;5085765;28;20119;-76
2021/08/09 01:18:34;;;;;;;1.50;1.40;;;14.10;99.90;;;;;;5104265;28;20083;-75
2021/08/09 01:21:02;;;;;;;6.80;2.42;;;14.10;99.90;;;;;;5105711;28;20046;-76
2021/08/09 01:23:39;;;;;;;1.58;1.30;;;14.10;99.90;;;;;;5108768;28;20039;-76
2021/08/09 01:26:11;;;;;;;3.45;1.83;;;14.10;99.90;;;;;;5107682;28;20503;-76
2021/08/09 01:28:37;;;;;;;0.65;0.65;;;14.10;99.90;;;;;;5105313;28;20281;-76
2021/08/09 01:31:06;;;;;;;4.47;1.55;;;14.10;99.90;;;;;;5112298;28;20036;-77
2021/08/09 01:33:34;;;;;;;1.38;1.27;;;14.10;99.90;;;;;;5109730;28;20040;-75
2021/08/09 01:36:02;;;;;;;1.63;1.30;;;14.00;99.90;;;;;;5112435;28;20031;-76
2021/08/09 01:38:29;;;;;;;0.60;0.60;;;14.00;99.90;;;;;;5107594;28;20035;-76
2021/08/09 01:40:56;;;;;;;2.08;1.77;;;14.00;99.90;;;;;;5093130;28;20041;-76
2021/08/09 01:43:24;;;;;;;1.67;1.20;;;14.00;99.90;;;;;;5107265;28;20050;-76
2021/08/09 01:45:52;;;;;;;12.07;1.50;;;13.90;99.90;;;;;;5103374;28;20035;-76
2021/08/09 01:48:18;;;;;;;3.88;0.95;;;14.00;99.90;;;;;;5104363;28;20058;-77
2021/08/09 01:50:44;;;;;;;2.28;1.52;;;14.00;99.90;;;;;;5111482;28;20500;-77
2021/08/09 01:53:11;;;;;;;3.83;2.03;;;14.00;99.90;;;;;;5109303;28;20028;-77
2021/08/09 01:55:37;;;;;;;0.80;0.80;;;14.00;99.90;;;;;;5099373;28;20059;-76
2021/08/09 01:58:03;;;;;;;2.85;1.80;;;14.00;99.90;;;;;;5105860;28;20035;-76
2021/08/09 02:00:29;;;;;;;1.42;1.17;;;14.10;99.90;;;;;;5111714;28;20477;-76
2021/08/09 02:02:55;;;;;;;1.73;1.33;;;14.00;99.90;;;;;;5108426;28;20047;-74
2021/08/09 02:05:23;;;;;;;8.02;2.50;;;14.10;99.90;;;;;;5093924;28;20039;-76
2021/08/09 02:07:50;;;;;;;2.83;2.42;;;14.00;99.90;;;;;;5109055;28;20048;-78
2021/08/09 02:10:19;;;;;;;5.03;2.03;;;14.00;99.90;;;;;;5108706;28;20080;-76
2021/08/09 02:13:08;;;;;;;5.53;1.83;;;14.00;99.90;;;;;;5110627;28;20076;-76
2021/08/09 02:15:40;;;;;;;2.60;2.10;;;14.00;99.90;;;;;;5108814;28;20108;-75
2021/08/09 02:18:15;;;;;;;5.20;2.22;;;14.00;99.90;;;;;;5100803;28;20147;-76
2021/08/09 02:20:44;;;;;;;4.03;1.80;;;14.00;99.90;;;;;;5110462;28;20036;-77
2021/08/09 02:23:14;;;;;;;2.15;1.88;;;14.00;99.90;;;;;;5109446;28;20043;-78
2021/08/09 02:25:44;;;;;;;5.07;2.22;;;14.00;99.90;;;;;;5093259;28;20036;-79
2021/08/09 02:28:20;;;;;;;3.42;2.08;;;14.00;99.90;;;;;;5107399;28;20035;-76
2021/08/09 02:31:08;;;;;;;1.30;1.20;;;13.90;99.90;;;;;;5108049;28;20039;-77
2021/08/09 02:33:35;;;;;;;3.08;1.55;;;13.90;99.90;;;;;;5107295;28;20089;-77
2021/08/09 02:36:03;;;;;;;8.73;2.03;;;13.90;99.90;;;;;;5111583;28;20035;-77
2021/08/09 02:38:31;;;;;;;3.95;2.40;;;13.90;99.90;;;;;;5098346;28;20050;-80
2021/08/09 02:41:01;;;;;;;6.32;3.15;;;13.90;99.90;;;;;;5110980;28;20088;-76
2021/08/09 02:43:27;;;;;;;2.65;1.77;;;13.90;99.90;;;;;;5091729;28;20085;-78
2021/08/09 02:45:55;;;;;;;12.73;2.08;;;13.90;99.90;;;;;;5089020;28;20032;-81
2021/08/09 02:48:22;;;;;;;2.35;1.38;;;13.90;99.90;;;;;;5105013;28;20393;-79
2021/08/09 02:50:48;;;;;;;2.25;1.40;;;13.90;99.90;;;;;;5098609;28;20032;-78
2021/08/09 02:53:19;;;;;;;1.92;1.73;;;13.90;99.90;;;;;;5105590;28;20040;-81
2021/08/09 02:55:50;;;;;;;3.95;1.67;;;14.00;99.90;;;;;;5100097;28;20036;-79
2021/08/09 02:58:17;;;;;;;1.70;1.60;;;14.00;99.90;;;;;;5103678;28;20046;-79
2021/08/09 03:00:44;;;;;;;1.90;1.05;;;14.00;99.90;;;;;;5096875;28;20059;-76
2021/08/09 03:03:11;;;;;;;1.77;1.55;;;14.10;99.90;;;;;;5105167;28;20083;-77
2021/08/09 03:05:39;;;;;;;1.65;1.13;;;14.10;99.90;;;;;;5111129;28;20036;-79
2021/08/09 03:08:11;;;;;;;3.22;1.60;;;14.20;99.90;;;;;;5097718;28;20155;-80
2021/08/09 03:10:37;;;;;;;2.42;2.20;;;14.20;99.90;;;;;;5110798;28;20032;-77
2021/08/09 03:13:08;;;;;;;2.90;1.55;;;14.20;99.90;;;;;;5104435;28;20100;-80
2021/08/09 03:15:34;;;;;;;3.00;1.65;;;14.10;99.90;;;;;;5106795;28;20032;-78
2021/08/09 03:18:02;;;;;;;1.75;1.08;;;14.20;99.90;;;;;;5077941;28;20047;-81
2021/08/09 03:20:30;;;;;;;1.42;1.33;;;14.20;99.90;;;;;;5111183;28;20047;-79
2021/08/09 03:22:56;;;;;;;4.18;2.30;;;14.20;99.90;;;;;;5092303;28;20085;-80
2021/08/09 03:25:22;;;;;;;;;;;14.20;99.90;;;;;;5111624;28;20032;-77
2021/08/09 03:27:48;;;;;;;3.28;2.20;;;14.20;99.90;;;;;;5108372;28;19934;-78
2021/08/09 03:30:14;;;;;;;5.43;2.33;;;14.20;99.90;;;;;;5111555;28;20093;-80
2021/08/09 03:32:39;;;;;;;1.83;1.42;;;14.10;99.90;;;;;;5109006;28;20035;-76
2021/08/09 03:35:05;;;;;;;3.53;1.70;;;14.20;99.90;;;;;;5108701;28;20067;-77
2021/08/09 03:37:31;;;;;;;;;;;14.20;99.90;;;;;;5087938;28;20063;-80
2021/08/09 03:39:57;;;;;;;2.50;1.35;;;14.10;99.90;;;;;;5099594;28;19959;-78
2021/08/09 03:42:23;;;;;;;4.97;2.20;;;14.20;99.90;;;;;;5106951;28;20388;-79
2021/08/09 03:44:50;;;;;;;2.30;1.70;;;14.10;99.90;;;;;;5091325;28;20122;-79
2021/08/09 03:47:15;;;;;;;3.78;2.13;;;14.10;99.90;;;;;;5110949;28;20348;-81
2021/08/09 03:49:41;;;;;;;4.38;1.95;;;14.10;99.90;;;;;;5100711;28;20078;-80
2021/08/09 03:52:07;;;;;;;;;;;14.10;99.90;;;;;;5093091;28;20031;-79
2021/08/09 03:54:33;;;;;;;11.88;2.10;;;14.10;99.90;;;;;;5096255;28;19916;-78
2021/08/09 03:56:59;;;;;;;2.58;1.95;;;14.10;99.90;;;;;;5076504;28;20477;-81
2021/08/09 03:59:24;;;;;;;4.47;2.10;;;14.10;99.90;;;;;;5102854;28;20046;-81
2021/08/09 04:01:50;;;;;;;1.95;1.83;;;14.10;99.90;;;;;;5094296;28;20031;-82
2021/08/09 04:04:16;;;;;;;14.50;2.13;;;14.10;99.90;;;;;;5109309;28;20110;-78
2021/08/09 04:06:42;;;;;;;;;;;14.00;99.90;;;;;;5103686;28;20118;-79
2021/08/09 04:09:08;;;;;;;1.75;1.15;;;14.00;99.90;;;;;;5082192;28;20436;-80
2021/08/09 04:11:35;;;;;;;2.17;1.27;;;14.00;99.90;;;;;;5096186;28;20058;-77
2021/08/09 04:14:02;;;;;;;1.73;1.38;;;14.00;99.90;;;;;;5110415;28;20058;-78
2021/08/09 04:16:28;;;;;;;1.42;1.15;;;14.10;99.90;;;;;;5114572;28;20393;-80
2021/08/09 04:18:55;;;;;;;1.88;1.60;;;14.00;99.90;;;;;;5106153;28;20180;-80
2021/08/09 04:21:21;;;;;;;1.45;1.35;;;14.00;99.90;;;;;;5104973;28;20032;-76
2021/08/09 04:23:48;;;;;;;1.33;1.23;;;14.00;99.90;;;;;;5111366;28;20043;-79
2021/08/09 04:26:15;;;;;;;5.28;2.25;;;14.00;99.90;;;;;;5086838;28;20039;-79
2021/08/09 04:28:43;;;;;;;1.55;1.30;;;14.00;99.90;;;;;;5110747;28;20520;-80
2021/08/09 04:31:09;;;;;;;1.40;1.27;;;14.00;99.90;;;;;;5109240;28;20032;-80
2021/08/09 04:33:43;;;;;;;;;;;14.00;99.90;;;;;;5094553;28;20039;-79
2021/08/09 04:36:08;;;;;;;6.13;2.10;;;14.00;99.90;;;;;;5116195;28;19934;-77
2021/08/09 04:38:34;;;;;;;2.42;1.85;;;14.00;99.90;;;;;;5126748;28;20055;-77
2021/08/09 04:41:10;;;;;;;1.17;1.00;;;14.00;99.90;;;;;;5106143;28;20039;-82
2021/08/09 04:43:38;;;;;;;1.63;1.35;;;14.10;99.90;;;;;;5106478;28;20039;-78
2021/08/09 04:46:04;;;;;;;1.48;1.15;;;14.10;99.90;;;;;;5111632;28;20256;-77
2021/08/09 04:48:31;;;;;;;2.20;1.42;;;14.10;99.90;;;;;;5098836;28;20032;-80
2021/08/09 04:50:58;;;;;;;1.52;1.02;;;14.20;99.90;;;;;;5109811;28;20055;-82
2021/08/09 04:53:24;;;;;;;8.90;1.58;;;14.20;99.90;;;;;;5108099;28;20044;-79
2021/08/09 04:55:50;;;;;;;1.55;1.30;;;14.20;99.90;;;;;;5093125;28;20477;-79
2021/08/09 04:58:16;;;;;;;5.25;1.13;;;14.20;99.90;;;;;;5080530;28;20051;-79
2021/08/09 05:00:41;;;;;;;;;;;14.20;99.90;;;;;;5094949;28;20047;-79
2021/08/09 05:03:08;;;;;;;3.42;1.83;;;14.20;99.90;;;;;;5110372;28;19919;-80
2021/08/09 05:05:33;;;;;;;8.40;1.48;;;14.20;99.90;;;;;;5096083;28;20031;-78
2021/08/09 05:07:59;;;;;;;1.42;1.33;;;14.20;99.90;;;;;;5093828;28;20113;-81
2021/08/09 05:10:26;;;;;;;1.63;1.52;;;14.20;99.90;;;;;;5104313;28;20032;-80
2021/08/09 05:12:52;;;;;;;9.80;2.60;;;14.20;99.90;;;;;;5098413;28;20043;-80
2021/08/09 05:15:21;;;;;;;1.98;1.77;;;14.20;99.90;;;;;;5101455;28;20040;-79
2021/08/09 05:17:47;;;;;;;2.53;1.70;;;14.20;99.90;;;;;;5106032;28;20062;-80
2021/08/09 05:20:15;;;;;;;1.33;1.00;;;14.30;99.90;;;;;;5095035;28;20047;-78
2021/08/09 05:22:41;;;;;;;1.10;1.00;;;14.30;99.90;;;;;;5086223;28;20043;-79
2021/08/09 05:25:10;;;;;;;2.33;1.48;;;14.20;99.90;;;;;;5112135;28;20031;-81
2021/08/09 05:27:36;;;;;;;3.22;2.20;;;14.30;99.90;;;;;;5110837;28;20032;-81
2021/08/09 05:30:03;;;;;;;5.05;2.22;;;14.30;99.90;;;;;;5090779;28;20035;-81
2021/08/09 05:32:29;;;;;;;;;;;14.20;99.90;;;;;;5111824;28;20040;-78
2021/08/09 05:34:56;;;;;;;1.48;1.38;;;14.30;99.90;;;;;;5086216;28;20019;-79
2021/08/09 05:37:22;;;;;;;2.25;1.67;;;14.20;99.90;;;;;;5112056;28;20055;-76
2021/08/09 05:39:48;;;;;;;3.85;1.75;;;14.20;99.90;;;;;;5106981;28;20044;-80
2021/08/09 05:42:13;;;;;;;4.80;1.50;;;14.20;99.90;;;;;;5107410;28;20039;-81
2021/08/09 05:44:39;;;;;;;0.88;0.88;;;14.20;99.90;;;;;;5101122;28;20110;-82
2021/08/09 05:47:05;;;;;;;9.65;2.05;;;14.20;99.90;;;;;;5109983;28;20040;-80
2021/08/09 05:49:31;;;;;;;1.60;1.05;;;14.20;99.90;;;;;;5088844;28;20137;-80
2021/08/09 05:51:57;;;;;;;2.15;1.58;;;14.20;99.90;;;;;;5108940;28;20044;-81
2021/08/09 05:54:22;;;;;;;1.58;1.48;;;14.20;99.90;;;;;;5084071;28;20498;-80
2021/08/09 05:56:48;;;;;;;;;;;14.30;99.90;;;;;;5066968;28;20044;-79
2021/08/09 05:59:14;;;;;;;3.90;2.15;;;14.30;99.90;;;;;;5092749;28;20060;-80
2021/08/09 06:01:40;;;;;;;12.55;1.98;;;14.30;99.90;;;;;;5094138;28;20035;-81
2021/08/09 06:04:05;;;;;;;;;;;14.40;99.90;;;;;;5101902;28;20413;-79
2021/08/09 06:06:31;;;;;;;1.95;1.67;;;14.40;99.90;;;;;;5107310;28;19923;-81
2021/08/09 06:08:57;;;;;;;1.52;1.42;;;14.50;99.90;;;;;;5107490;28;20085;-78
2021/08/09 06:11:23;;;;;;;2.22;1.40;;;14.50;99.90;;;;;;5099724;28;20063;-79
2021/08/09 06:13:49;;;;;;;3.53;1.33;;;14.50;99.90;;;;;;5079417;28;20031;-78
2021/08/09 06:16:15;;;;;;;2.83;1.77;;;14.60;99.90;;;;;;5107558;28;20378;-79
2021/08/09 06:18:40;;;;;;;;;;;14.60;99.90;;;;;;5107750;28;20044;-79
2021/08/09 06:21:06;;;;;;;1.58;1.20;;;14.60;99.90;;;;;;5104230;28;19919;-81
2021/08/09 06:23:33;;;;;;;3.28;1.40;;;14.70;99.90;;;;;;5094970;28;20040;-79
2021/08/09 06:25:58;;;;;;;3.65;2.30;;;14.70;99.90;;;;;;5104492;27;20043;-77
2021/08/09 06:28:24;;;;;;;;;;;14.80;99.90;;;;;;5102804;28;20390;-81
2021/08/09 06:30:50;;;;;;;4.20;0.85;;;14.80;99.90;;;;;;5092072;28;19965;-79
2021/08/09 06:33:16;;;;;;;3.22;1.15;;;14.90;99.90;;;;;;5092632;28;20097;-78
2021/08/09 06:35:42;;;;;;;;;;;14.90;99.90;;;;;;5092820;28;20042;-81
2021/08/09 06:38:08;;;;;;;2.35;1.25;;;15.00;99.90;;;;;;5078220;28;19920;-78
2021/08/09 06:40:35;;;;;;;0.95;0.77;;;15.10;99.90;;;;;;5081682;28;20390;-80
2021/08/09 06:43:02;;;;;;;1.98;1.08;;;15.10;99.90;;;;;;5092247;28;20031;-79
2021/08/09 06:45:29;;;;;;;1.65;1.25;;;15.20;99.90;;;;;;5094166;28;20400;-80
2021/08/09 06:47:55;;;;;;;13.88;1.13;;;15.30;99.90;;;;;;5090768;28;20399;-79
2021/08/09 06:50:21;;;;;;;;;;;15.30;99.90;;;;;;5093408;28;20149;-80
2021/08/09 06:52:47;;;;;;;1.15;1.05;;;15.40;99.90;;;;;;5094237;28;19945;-76
2021/08/09 06:55:13;;;;;;;3.40;1.13;;;15.50;99.90;;;;;;5074755;28;20031;-80
2021/08/09 06:57:39;;;;;;;8.23;1.42;;;15.50;99.90;;;;;;5092705;28;20031;-81
2021/08/09 07:00:06;;;;;;;1.27;1.13;;;15.60;99.90;;;;;;5095447;28;20048;-78
2021/08/09 07:02:33;;;;;;;2.53;1.50;;;15.70;99.90;;;;;;5105126;28;20106;-77
2021/08/09 07:04:59;;;;;;;3.30;1.08;;;15.80;99.90;;;;;;5088579;28;20028;-79
2021/08/09 07:07:25;;;;;;;;;;;15.90;99.90;;;;;;5106012;28;20081;-79
2021/08/09 07:09:51;;;;;;;1.02;0.98;;;16.00;99.90;;;;;;5076176;28;19940;-79
2021/08/09 07:12:17;;;;;;;3.13;1.48;;;16.10;99.90;;;;;;5089943;28;20039;-78
2021/08/09 07:14:43;;;;;;;;;;;16.10;99.90;;;;;;5077864;28;20070;-81
2021/08/09 07:17:09;;;;;;;2.85;2.05;;;16.20;99.90;;;;;;5104934;28;19965;-79
2021/08/09 07:19:39;;;;;;;3.67;2.15;;;16.20;99.90;;;;;;5081805;28;20035;-82
2021/08/09 07:22:05;;;;;;;2.53;1.05;;;16.30;99.90;;;;;;5101952;27;20054;-80
2021/08/09 07:24:34;;;;;;;6.10;1.10;;;16.40;99.90;;;;;;5111972;27;20043;-76
2021/08/09 07:27:00;;;;;;;3.92;1.30;;;16.60;99.90;;;;;;5100839;27;20622;-78
2021/08/09 07:29:27;;;;;;;1.77;1.30;;;16.70;99.90;;;;;;5082554;28;20058;-76
2021/08/09 07:31:53;;;;;;;2.05;1.40;;;16.90;99.90;;;;;;5088091;28;20035;-80
2021/08/09 07:34:19;;;;;;;1.65;1.52;;;16.90;99.90;;;;;;5079780;28;20449;-80
2021/08/09 07:36:45;;;;;;;;;;;16.90;99.90;;;;;;5097363;28;20130;-81
2021/08/09 07:39:10;;;;;;;1.35;1.25;;;16.90;99.90;;;;;;5083572;28;19966;-78
2021/08/09 07:41:36;;;;;;;;;;;16.90;99.90;;;;;;5094880;27;20648;-80
2021/08/09 07:44:02;;;;;;;4.32;2.22;;;16.90;99.90;;;;;;5109900;27;19931;-80
2021/08/09 07:46:27;;;;;;;;;;;16.90;99.90;;;;;;5098573;28;20091;-77
2021/08/09 07:48:54;;;;;;;1.45;1.25;;;16.90;99.90;;;;;;5107632;27;19968;-80
2021/08/09 07:51:20;;;;;;;7.28;3.08;;;16.90;99.90;;;;;;5094543;27;20036;-80
2021/08/09 07:53:46;;;;;;;;;;;16.90;99.90;;;;;;5100788;27;20063;-80
2021/08/09 07:56:11;;;;;;;1.85;1.58;;;17.00;99.90;;;;;;5093948;27;20015;-80
2021/08/09 07:58:37;;;;;;;2.08;1.23;;;17.10;99.90;;;;;;5077693;28;20059;-80
2021/08/09 08:01:03;;;;;;;;;;;16.90;99.90;;;;;;5096276;27;20818;-79
2021/08/09 08:03:29;;;;;;;2.90;1.40;;;17.10;99.90;;;;;;5092602;27;20077;-80
2021/08/09 08:05:54;;;;;;;;;;;17.20;99.90;;;;;;5077849;27;20035;-80
2021/08/09 08:08:20;;;;;;;1.67;1.27;;;17.20;99.90;;;;;;5095080;27;19935;-77
2021/08/09 08:10:46;;;;;;;;;;;17.30;99.90;;;;;;5079107;27;20035;-79
2021/08/09 08:13:11;;;;;;;4.35;1.98;;;17.30;99.90;;;;;;5093254;27;19970;-79
2021/08/09 08:15:37;;;;;;;;;;;17.40;99.90;;;;;;5074551;28;20032;-82
2021/08/09 08:18:03;;;;;;;4.75;1.45;;;17.40;99.90;;;;;;5096966;27;19934;-80
2021/08/09 08:20:29;;;;;;;;;;;17.40;99.90;;;;;;5061807;28;20058;-79
2021/08/09 08:22:57;;;;;;;2.90;1.15;;;17.40;99.90;;;;;;5097927;27;20439;-81
2021/08/09 08:25:24;;;;;;;2.50;1.42;;;17.40;99.90;;;;;;5076230;27;20047;-79
2021/08/09 08:27:50;;;;;;;1.67;1.45;;;17.40;99.90;;;;;;5106603;27;20035;-80
2021/08/09 08:30:16;;;;;;;;;;;17.40;99.90;;;;;;5071390;28;20047;-80
2021/08/09 08:32:42;;;;;;;5.50;2.65;;;17.50;99.90;;;;;;5094602;27;20061;-80
2021/08/09 08:35:08;;;;;;;5.32;1.77;;;17.70;99.90;;;;;;5094010;27;20036;-79
2021/08/09 08:37:34;;;;;;;3.40;1.85;;;17.70;99.90;;;;;;5095911;27;20352;-81
2021/08/09 08:40:00;;;;;;;1.92;1.67;;;17.70;99.90;;;;;;5093820;28;20062;-79
2021/08/09 08:42:26;;;;;;;;;;;17.70;99.90;;;;;;5102459;28;20047;-79
2021/08/09 08:44:52;;;;;;;1.55;1.38;;;17.70;99.90;;;;;;5091532;28;20288;-78
2021/08/09 08:47:20;;;;;;;3.92;1.90;;;17.80;99.90;;;;;;5094991;27;20039;-79
2021/08/09 08:49:47;;;;;;;12.50;1.83;;;17.90;99.90;;;;;;5075896;28;20044;-77
2021/08/09 08:52:15;;;;;;;2.45;1.63;;;18.00;99.90;;;;;;5105641;27;20048;-80
2021/08/09 08:54:41;;;;;;;8.73;2.42;;;18.00;99.90;;;;;;5100834;27;20150;-80
2021/08/09 08:57:36;;;;;;;;;;;18.20;99.90;;;;;;5099564;27;20138;-78
2021/08/09 09:00:02;;;;;;;3.78;1.60;;;18.20;99.90;;;;;;5081913;27;20321;-78
2021/08/09 09:02:35;;;;;;;;;;;18.40;99.90;;;;;;5091868;27;20077;-80
2021/08/09 09:05:09;;;;;;;19.30;1.77;;;18.50;99.90;;;;;;5094146;27;19969;-77
2021/08/09 09:07:35;;;;;;;4.10;1.63;;;18.50;99.90;;;;;;5089200;28;20059;-80
2021/08/09 09:10:19;;;;;;;5.97;1.40;;;18.70;99.90;;;;;;5090164;28;20039;-78
2021/08/09 09:13:14;;;;;;;9.00;1.80;;;18.70;99.90;;;;;;5096770;27;20058;-80
2021/08/09 09:16:03;;;;;;;2.33;1.33;;;18.60;99.90;;;;;;5097396;28;20028;-81
2021/08/09 09:18:48;;;;;;;1.40;1.30;;;18.60;99.90;;;;;;5090404;27;20036;-79
2021/08/09 09:21:41;;;;;;;3.13;2.13;;;18.70;99.90;;;;;;5099854;27;20044;-83
2021/08/09 09:24:20;;;;;;;1.92;1.27;;;18.90;99.90;;;;;;5094297;28;20039;-80
2021/08/09 09:27:02;;;;;;;1.65;1.13;;;19.00;99.90;;;;;;5075123;28;20040;-77
2021/08/09 09:29:37;;;;;;;3.88;1.23;;;19.20;99.90;;;;;;5073964;28;20054;-80
2021/08/09 09:32:18;;;;;;;1.38;1.08;;;19.20;99.90;;;;;;5098625;28;20104;-79
2021/08/09 09:34:51;;;;;;;1.27;1.17;;;19.40;99.90;;;;;;5101427;28;20500;-81
2021/08/09 09:37:39;;;;;;;1.27;1.15;;;19.40;99.90;;;;;;5096950;28;20031;-78
2021/08/09 09:40:15;;;;;;;0.73;0.73;;;19.50;99.90;;;;;;5087827;28;20035;-78
2021/08/09 09:42:42;;;;;;;1.42;0.85;;;19.60;99.90;;;;;;5107698;28;20035;-80
2021/08/09 09:45:26;;;;;;;3.80;1.33;;;19.70;99.90;;;;;;5105170;28;20362;-79
2021/08/09 09:48:06;;;;;;;0.77;0.77;;;19.80;99.90;;;;;;5071266;28;20036;-78
2021/08/09 09:50:35;;;;;;;2.75;1.45;;;20.20;99.90;;;;;;5101511;28;20118;-80
2021/08/09 09:53:22;;;;;;;1.23;1.13;;;20.40;99.90;;;;;;5101931;28;20036;-78
2021/08/09 09:55:52;;;;;;;2.13;1.30;;;20.40;99.90;;;;;;5106173;27;20035;-78
2021/08/09 09:58:19;;;;;;;1.15;0.95;;;20.50;99.90;;;;;;5106730;28;20036;-82
2021/08/09 10:00:45;;;;;;;5.50;1.83;;;20.50;99.90;;;;;;5082421;28;20047;-81
2021/08/09 10:03:12;;;;;;;2.92;0.93;;;20.60;99.90;;;;;;5107020;28;20114;-78
2021/08/09 10:05:42;;;;;;;0.73;0.73;;;20.60;99.90;;;;;;5106451;28;20043;-80
2021/08/09 10:08:14;;;;;;;1.40;1.10;;;20.70;99.90;;;;;;5106520;28;20511;-78
2021/08/09 10:10:49;;;;;;;1.23;0.77;;;20.70;99.90;;;;;;5077104;28;20040;-77
2021/08/09 10:13:20;;;;;;;1.33;1.23;;;20.60;99.90;;;;;;5097866;28;20062;-81
2021/08/09 10:15:59;;;;;;;0.90;0.52;;;20.60;99.90;;;;;;5090489;28;20051;-81
2021/08/09 10:18:31;;;;;;;1.15;0.82;;;20.60;99.90;;;;;;5089513;28;20044;-80
2021/08/09 10:21:00;;;;;;;2.63;1.30;;;20.60;99.90;;;;;;5107340;28;20068;-82
2021/08/09 10:23:44;;;;;;;2.40;0.85;;;20.60;99.90;;;;;;5108087;28;20872;-83
2021/08/09 10:26:12;;;;;;;1.08;0.98;;;20.70;99.90;;;;;;5107282;27;20481;-81
2021/08/09 10:28:54;;;;;;;3.17;1.00;;;20.90;99.90;;;;;;5092058;28;20036;-82
2021/08/09 10:31:39;;;;;;;1.15;0.70;;;20.90;99.90;;;;;;5061147;28;20048;-80
2021/08/09 10:34:29;;;;;;;0.50;0.50;;;20.80;99.90;;;;;;5101199;28;20051;-83
2021/08/09 10:37:14;;;;;;;0.70;0.70;;;20.60;99.90;;;;;;5104836;28;20043;-83
2021/08/09 10:39:48;;;;;;;1.08;0.82;;;20.40;99.90;;;;;;5087254;28;20051;-82
2021/08/09 10:42:29;;;;;;;1.42;0.93;;;20.30;99.90;;;;;;5102424;28;20036;-79
2021/08/09 10:44:55;;;;;;;1.33;0.65;;;20.20;99.90;;;;;;5107719;28;20093;-82
2021/08/09 10:47:45;;;;;;;0.30;0.30;;;20.30;99.90;;;;;;5106457;28;20071;-84
2021/08/09 10:50:26;;;;;;;1.08;0.85;;;20.50;99.90;;;;;;5092729;28;20033;-80
2021/08/09 10:52:54;;;;;;;1.15;0.95;;;20.90;99.90;;;;;;5123413;27;20039;-82
2021/08/09 10:55:35;;;;;;;1.40;0.98;;;21.20;99.90;;;;;;5089422;28;20034;-82
2021/08/09 10:58:05;;;;;;;3.03;0.80;;;21.40;99.90;;;;;;5102519;28;20590;-81
2021/08/09 11:00:42;;;;;;;1.65;0.98;;;21.60;99.90;;;;;;5076448;28;20032;-81
2021/08/09 11:03:09;;;;;;;0.65;0.60;;;21.80;99.90;;;;;;5103704;28;20047;-82
2021/08/09 11:05:35;;;;;;;0.60;0.60;;;22.00;99.90;;;;;;5105544;28;20047;-80
2021/08/09 11:08:16;;;;;;;0.70;0.63;;;21.90;99.90;;;;;;5112122;28;20063;-81
2021/08/09 11:10:51;;;;;;;0.65;0.65;;;21.60;99.90;;;;;;5105013;28;20039;-83
2021/08/09 11:13:18;;;;;;;0.47;0.47;;;21.10;99.90;;;;;;5108856;28;20031;-80
2021/08/09 11:15:57;;;;;;;0.55;0.50;;;20.60;99.90;;;;;;5095862;28;20032;-82
2021/08/09 11:18:23;;;;;;;0.90;0.77;;;20.10;99.90;;;;;;5086381;28;20044;-81
2021/08/09 11:21:01;;;;;;;0.47;0.47;;;19.80;99.90;;;;;;5110218;28;20043;-82
2021/08/09 11:23:34;;;;;;;1.05;0.55;;;19.50;99.90;;;;;;5110985;28;20047;-83
2021/08/09 11:25:59;;;;;;;0.70;0.70;;;19.30;99.90;;;;;;5096443;28;20066;-82
2021/08/09 11:28:26;;;;;;;1.75;0.75;;;19.20;99.90;;;;;;5084349;28;20036;-82
2021/08/09 11:30:53;;;;;;;1.10;1.00;;;19.30;99.90;;;;;;5103441;28;20110;-81
2021/08/09 11:33:29;;;;;;;0.68;0.68;;;19.40;99.90;;;;;;5090996;28;20046;-84
2021/08/09 11:35:58;;;;;;;2.97;1.13;;;19.50;99.90;;;;;;5101996;28;20040;-81
2021/08/09 11:38:24;;;;;;;1.02;0.65;;;19.60;99.90;;;;;;5107775;28;20050;-80
2021/08/09 11:40:53;;;;;;;2.72;1.10;;;19.60;99.90;;;;;;5094331;28;20497;-82
2021/08/09 11:43:25;;;;;;;0.82;0.77;;;19.60;99.90;;;;;;5093453;28;20054;-82
2021/08/09 11:45:53;;;;;;;2.47;0.93;;;19.60;99.90;;;;;;5106288;28;20040;-81
2021/08/09 11:48:26;;;;;;;4.50;0.70;;;19.70;99.90;;;;;;5101141;28;20036;-80
2021/08/09 11:51:04;;;;;;;0.75;0.70;;;20.00;99.90;;;;;;5096130;28;20066;-81
2021/08/09 11:53:30;;;;;;;0.40;0.40;;;20.30;99.90;;;;;;5104997;28;20043;-82
2021/08/09 11:56:11;;;;;;;2.38;0.88;;;20.50;99.90;;;;;;5114441;27;20036;-81
2021/08/09 11:58:37;;;;;;;1.55;0.55;;;20.70;99.90;;;;;;5083702;28;20125;-84
2021/08/09 12:01:04;;;;;;;0.70;0.70;;;21.00;99.90;;;;;;5109069;27;20166;-81
2021/08/09 12:03:31;;;;;;;0.50;0.50;;;21.10;99.90;;;;;;5098634;28;20036;-83
2021/08/09 12:06:23;;;;;;;0.47;0.47;;;21.30;99.90;;;;;;5107822;27;20422;-83
2021/08/09 12:09:00;;;;;;;0.40;0.40;;;21.70;99.90;;;;;;5109286;28;20052;-82
2021/08/09 12:11:32;;;;;;;0.93;0.70;;;22.20;99.90;;;;;;5067978;28;20135;-83
2021/08/09 12:14:13;;;;;;;0.85;0.70;;;22.70;99.90;;;;;;5122277;27;20044;-83
2021/08/09 12:16:49;;;;;;;0.20;0.20;;;23.10;99.90;;;;;;5109755;28;20185;-81
2021/08/09 12:19:18;;;;;;;;;;;23.20;99.90;;;;;;5106145;28;20865;-82
2021/08/09 12:21:44;;;;;;;2.03;0.70;;;23.10;99.90;;;;;;5084882;28;19919;-82
2021/08/09 12:24:22;;;;;;;0.55;0.55;;;23.00;99.90;;;;;;5092848;28;20038;-82
2021/08/09 12:26:52;;;;;;;0.70;0.70;;;22.80;99.90;;;;;;5092524;28;20420;-81
2021/08/09 12:29:21;;;;;;;5.57;0.65;;;22.70;99.90;;;;;;5101986;28;20035;-81
2021/08/09 12:31:50;;;;;;;1.33;0.80;;;22.70;99.90;;;;;;5089143;28;20039;-83
2021/08/09 12:34:21;;;;;;;1.13;0.75;;;22.70;99.90;;;;;;5073163;28;20074;-82
2021/08/09 12:36:49;;;;;;;2.17;1.20;;;22.60;99.90;;;;;;5105337;28;20046;-80
2021/08/09 12:39:35;;;;;;;0.60;0.60;;;22.40;99.90;;;;;;5110089;28;20070;-81
2021/08/09 12:42:15;;;;;;;0.50;0.50;;;22.30;99.90;;;;;;5096767;28;20039;-81
2021/08/09 12:44:42;;;;;;;0.63;0.60;;;22.10;99.90;;;;;;5095860;28;20036;-81
2021/08/09 12:47:08;;;;;;;1.92;0.60;;;22.00;99.90;;;;;;5091345;28;20111;-83
2021/08/09 12:49:34;;;;;;;0.57;0.57;;;21.90;99.90;;;;;;5104142;28;20119;-84
2021/08/09 12:52:00;;;;;;;1.85;0.85;;;21.80;99.90;;;;;;5096081;28;20032;-82
2021/08/09 12:54:26;;;;;;;0.55;0.55;;;21.70;99.90;;;;;;5104344;28;20383;-84
2021/08/09 12:56:51;;;;;;;0.70;0.70;;;21.60;99.90;;;;;;5107276;28;20122;-80
2021/08/09 12:59:17;;;;;;;1.25;1.05;;;21.60;99.90;;;;;;5097209;28;20036;-83
2021/08/09 13:01:43;;;;;;;1.08;0.70;;;21.60;99.90;;;;;;5096999;28;20039;-81
2021/08/09 13:04:09;;;;;;;0.68;0.68;;;21.60;99.90;;;;;;5109905;28;20035;-83
2021/08/09 13:06:35;;;;;;;6.22;0.63;;;21.60;99.90;;;;;;5084004;28;20059;-83